Airfield :
LOGIN :

Register | Disclaimer

   EN    FR    IT 

 










Legend :    VFR   Marginal VFR   IFR   Intensive IFR   Very Intensive IFR
Visi :
Ceiling :
>= 8 km
>= 3000ft
5 to 8 km
1000 to 3000 ft
1500m to 5 km
500 to 1000 ft
800 to 1500m
200 to 500 ft
< 800m
< 200 ft
Symbols :   Thunderstorms  Fog  Heavy snow  Heavy precipitations  Wind > 20 kt
SIGMETs :     Misc.  Thunderstorms  Icing  Turbulence  Mountain Waves  Volcanic Ashes







- Airport Elevation : 219 ft
- IATA code : DNR
- Download approach charts


LFRD - Dinard

CURRENT METAR :
  • 210800Z AUTO 05007KT 9999 OVC022/// 05/01 Q1024 NOSIG

EXPIRED METARs :
  • 210730Z AUTO 05007KT 010V070 9999 OVC023/// 05/01 Q1024 NOSIG
  • 210700Z AUTO 02008KT 9999 OVC024/// 05/00 Q1024 NOSIG
  • 210630Z AUTO 02008KT 9999 BKN026/// 04/00 Q1024 NOSIG
  • 210600Z AUTO 01007KT 9999 BKN026/// BKN031/// 04/01 Q1024 NOSIG
  • 210530Z AUTO 02007KT 9999 BKN027/// 05/00 Q1024 NOSIG

TAF TAF LFRD
Valid from the 21 at 06:00 until the 22 at 06:00 UTC


210500Z 2106/2206 01005KT 9999 BKN025
BECMG 2118/2120 21010KT
TEMPO 2121/2124 5000 RA
TEMPO 2122/2204 19015G25KT
BECMG 2200/2202 4000 RA BKN012
TEMPO 2202/2205 3000 RA BKN004
BECMG 2205/2206 31010KT 9999 NSW BKN020
ATIS : +33 2 99 16 81 50
No reported NOTAMs for that airfield.



MET'MAP, your aeronautical weather chart ! - Copyright ORBIFLY December 2007 - Disclaimer

ORBIFLY MET'MAP TEAM :

Programming & Development : Alexandra Zaïnal
Concept & Development : Baudouin d'Aumeries
Co-Development & Prog : Marc-Olivier Méhu
Technical & hardware support : Manuel Goepfert

Contact : metmap@orbifly.com




SOURCES & CREDITS :

   NOAA